createdAt,value
2019-04-06T00:02:45.714Z,12.60
2019-04-06T00:07:48.240Z,12.40
2019-04-06T00:12:50.868Z,12.40
2019-04-06T00:17:53.437Z,12.50
2019-04-06T00:22:56.029Z,12.50
2019-04-06T00:27:58.539Z,12.50
2019-04-06T00:33:04.733Z,12.60
2019-04-06T00:38:07.299Z,12.70
2019-04-06T00:43:09.801Z,12.70
2019-04-06T00:48:12.299Z,12.70
2019-04-06T00:53:14.856Z,12.70
2019-04-06T00:58:17.447Z,12.70
2019-04-06T01:03:19.983Z,12.80
2019-04-06T01:08:22.533Z,12.80
2019-04-06T01:13:25.089Z,12.80
2019-04-06T01:18:27.655Z,12.80
2019-04-06T01:23:30.186Z,12.80
2019-04-06T01:28:32.774Z,12.70
2019-04-06T01:33:35.356Z,12.60
2019-04-06T01:38:37.917Z,12.50
2019-04-06T01:43:40.485Z,12.50
2019-04-06T01:48:43.086Z,12.50
2019-04-06T01:53:45.641Z,12.40
2019-04-06T01:58:48.179Z,12.40
2019-04-06T02:03:50.772Z,12.40
2019-04-06T02:08:53.377Z,12.30
2019-04-06T02:13:55.952Z,12.00
2019-04-06T02:18:58.710Z,12.00
2019-04-06T02:24:03.297Z,12.00
2019-04-06T02:29:05.771Z,12.00
2019-04-06T02:34:30.132Z,12.00
2019-04-06T02:39:42.110Z,12.00
2019-04-06T02:44:44.714Z,12.00
2019-04-06T02:49:47.238Z,12.00
2019-04-06T02:54:49.864Z,12.00
2019-04-06T02:59:52.442Z,12.00
2019-04-06T03:04:54.971Z,11.90
2019-04-06T03:09:57.618Z,12.00
2019-04-06T03:15:00.421Z,12.10
2019-04-06T03:20:03.559Z,12.10
2019-04-06T03:25:06.105Z,12.20
2019-04-06T03:30:08.926Z,12.20
2019-04-06T03:35:11.536Z,12.10
2019-04-06T03:40:14.095Z,12.00
2019-04-06T03:45:16.634Z,11.80
2019-04-06T03:50:19.134Z,12.00
2019-04-06T03:55:21.703Z,12.10
2019-04-06T04:00:24.267Z,12.20
2019-04-06T04:05:26.768Z,12.20
2019-04-06T04:10:33.500Z,12.30
2019-04-06T04:15:36.630Z,12.30
2019-04-06T04:20:38.929Z,12.30
2019-04-06T04:25:41.476Z,12.10
2019-04-06T04:30:44.111Z,11.90
2019-04-06T04:35:46.524Z,11.90
2019-04-06T04:40:49.039Z,11.80
2019-04-06T04:45:51.539Z,11.70
2019-04-06T04:50:54.029Z,11.60
2019-04-06T04:55:56.781Z,11.70
2019-04-06T05:00:59.149Z,11.80
2019-04-06T05:06:01.711Z,11.50
2019-04-06T05:11:05.289Z,11.60
2019-04-06T05:16:09.998Z,11.40
2019-04-06T05:21:12.917Z,11.00
2019-04-06T05:26:15.226Z,11.10
2019-04-06T05:31:17.739Z,11.30
2019-04-06T05:36:20.283Z,11.10
2019-04-06T05:41:22.933Z,11.50
2019-04-06T05:46:25.514Z,11.60
2019-04-06T05:51:27.989Z,11.60
2019-04-06T05:56:30.527Z,11.80
2019-04-06T06:01:33.180Z,11.80
2019-04-06T06:06:35.948Z,11.80
2019-04-06T06:11:38.499Z,12.00
2019-04-06T06:16:40.978Z,12.10
2019-04-06T06:21:43.524Z,12.00
2019-04-06T06:26:46.095Z,12.10
2019-04-06T06:31:48.721Z,12.00
2019-04-06T06:36:51.363Z,12.00
2019-04-06T06:41:54.093Z,12.00
2019-04-06T06:46:56.722Z,11.90
2019-04-06T06:51:59.238Z,12.00
2019-04-06T06:57:01.733Z,12.00
2019-04-06T07:02:04.378Z,12.20
2019-04-06T07:07:06.923Z,12.30
2019-04-06T07:12:09.657Z,11.90
2019-04-06T07:17:12.187Z,11.90
2019-04-06T07:22:14.735Z,11.90
2019-04-06T07:27:17.496Z,11.90
2019-04-06T07:32:20.131Z,11.70
2019-04-06T07:37:22.771Z,12.00
2019-04-06T07:42:25.393Z,12.30
2019-04-06T07:47:27.953Z,12.10
2019-04-06T07:52:30.619Z,12.10
2019-04-06T07:57:34.993Z,12.10
2019-04-06T08:02:37.699Z,12.10
2019-04-06T08:07:40.923Z,12.10
2019-04-06T08:12:43.603Z,12.20
2019-04-06T08:17:46.340Z,12.50
2019-04-06T08:22:49.205Z,12.60
2019-04-06T08:27:51.782Z,12.80
2019-04-06T08:32:54.713Z,13.20
2019-04-06T08:37:57.348Z,13.40
2019-04-06T08:43:02.994Z,13.70
2019-04-06T08:48:06.106Z,14.00
2019-04-06T08:53:09.836Z,14.10
2019-04-06T08:58:15.203Z,14.10
2019-04-06T09:03:22.621Z,14.20
2019-04-06T09:08:33.021Z,14.30
2019-04-06T09:13:40.439Z,14.70
2019-04-06T09:18:43.297Z,15.00
2019-04-06T09:23:47.309Z,15.40
2019-04-06T09:28:50.251Z,16.00
2019-04-06T09:33:52.846Z,16.30
2019-04-06T09:38:55.394Z,16.80
2019-04-06T09:43:58.120Z,16.30
2019-04-06T09:49:24.777Z,16.20
2019-04-06T09:54:48.015Z,16.50
2019-04-06T09:59:58.188Z,16.70
2019-04-06T10:06:04.681Z,16.50
2019-04-06T10:12:13.185Z,16.20
2019-04-06T10:18:27.748Z,16.20
2019-04-06T10:23:35.953Z,16.10
2019-04-06T10:28:44.877Z,16.20
2019-04-06T10:33:57.442Z,16.00
2019-04-06T10:39:13.996Z,15.80
2019-04-06T10:44:23.579Z,16.50
2019-04-06T10:49:47.062Z,16.60
2019-04-06T10:54:58.463Z,16.80
2019-04-06T11:00:06.506Z,17.40
2019-04-06T11:05:45.969Z,17.90
2019-04-06T11:10:54.635Z,18.40
2019-04-06T11:16:15.204Z,19.20
2019-04-06T11:21:25.427Z,19.20
2019-04-06T11:27:32.479Z,19.10
2019-04-06T11:33:13.386Z,19.30
2019-04-06T11:38:22.268Z,19.40
2019-04-06T11:43:34.875Z,19.50
2019-04-06T11:48:45.240Z,19.90
2019-04-06T11:53:53.641Z,19.50
2019-04-06T11:59:11.138Z,19.50
2019-04-06T12:04:22.104Z,19.40
2019-04-06T12:09:33.244Z,19.80
2019-04-06T12:14:44.508Z,20.10
2019-04-06T12:19:57.743Z,20.30
2019-04-06T12:25:07.003Z,20.80
2019-04-06T12:30:21.219Z,20.30
2019-04-06T12:35:43.565Z,20.30
2019-04-06T12:40:51.615Z,20.50
2019-04-06T12:46:59.599Z,21.10
2019-04-06T12:52:29.210Z,20.00
2019-04-06T12:57:52.523Z,19.70
2019-04-06T13:03:07.539Z,19.60
2019-04-06T13:08:32.800Z,19.60
2019-04-06T13:13:43.335Z,19.10
2019-04-06T13:19:00.370Z,19.30
2019-04-06T13:24:40.744Z,19.60
2019-04-06T13:30:17.106Z,19.60
2019-04-06T13:36:24.015Z,19.30
2019-04-06T13:42:05.461Z,19.20
2019-04-06T13:49:18.832Z,19.50
2019-04-06T13:54:33.809Z,19.20
2019-04-06T13:59:48.910Z,19.40
2019-04-06T14:04:57.808Z,19.50
2019-04-06T14:10:36.323Z,19.90
2019-04-06T14:15:46.805Z,19.80
2019-04-06T14:20:59.049Z,20.20
2019-04-06T14:26:07.661Z,20.30
2019-04-06T14:31:27.453Z,20.30
2019-04-06T14:36:29.811Z,20.80
2019-04-06T14:41:41.859Z,20.60
2019-04-06T14:47:20.803Z,20.80
2019-04-06T14:52:29.827Z,20.80
2019-04-06T14:58:36.088Z,20.70
2019-04-06T15:03:45.227Z,20.80
2019-04-06T15:08:54.483Z,20.40
2019-04-06T15:14:04.986Z,20.30
2019-04-06T15:19:17.582Z,20.30
2019-04-06T15:24:28.088Z,20.20
2019-04-06T15:29:41.953Z,20.30
2019-04-06T15:34:57.987Z,20.30
2019-04-06T15:40:12.330Z,20.30
2019-04-06T15:45:20.234Z,20.40
2019-04-06T15:50:35.444Z,20.20
2019-04-06T15:55:42.492Z,20.20
2019-04-06T16:00:51.615Z,20.20
2019-04-06T16:06:00.717Z,20.00
2019-04-06T16:11:20.924Z,20.10
2019-04-06T16:16:28.265Z,19.90
2019-04-06T16:21:37.527Z,19.90
2019-04-06T16:26:48.750Z,19.60
2019-04-06T16:31:55.611Z,19.30
2019-04-06T16:37:26.597Z,19.10
2019-04-06T16:42:43.088Z,19.00
2019-04-06T16:47:51.524Z,18.80
2019-04-06T16:53:03.037Z,18.80
2019-04-06T16:59:12.631Z,18.60
2019-04-06T17:04:31.918Z,18.40
2019-04-06T17:09:51.920Z,18.30
2019-04-06T17:15:04.577Z,18.10
2019-04-06T17:20:46.251Z,18.20
2019-04-06T17:26:28.894Z,18.00
2019-04-06T17:31:55.494Z,17.90
2019-04-06T17:37:05.849Z,17.90
2019-04-06T17:42:16.244Z,17.80
2019-04-06T17:47:27.703Z,17.90
2019-04-06T17:52:34.929Z,17.80
2019-04-06T17:57:46.853Z,17.70
2019-04-06T18:03:08.506Z,17.60
2019-04-06T18:10:21.214Z,17.60
2019-04-06T18:15:23.867Z,17.40
2019-04-06T18:20:28.781Z,17.20
2019-04-06T18:25:33.475Z,17.30
2019-04-06T18:30:36.390Z,17.20
2019-04-06T18:35:39.363Z,17.30
2019-04-06T18:40:42.419Z,17.10
2019-04-06T18:45:44.550Z,17.10
2019-04-06T18:50:47.360Z,17.00
2019-04-06T18:55:50.561Z,17.00
2019-04-06T19:00:53.177Z,16.60
2019-04-06T19:05:55.765Z,16.90
2019-04-06T19:10:58.906Z,17.00
2019-04-06T19:16:01.263Z,17.10
2019-04-06T19:21:03.986Z,17.00
2019-04-06T19:26:06.541Z,16.90
2019-04-06T19:31:09.137Z,16.80
2019-04-06T19:36:12.272Z,16.80
2019-04-06T19:41:14.548Z,16.40
2019-04-06T19:46:17.342Z,16.80
2019-04-06T19:51:20.835Z,16.80
2019-04-06T19:56:24.457Z,16.60
2019-04-06T20:01:27.891Z,16.50
2019-04-06T20:06:30.732Z,16.30
2019-04-06T20:11:33.614Z,16.20
2019-04-06T20:16:36.467Z,16.30
2019-04-06T20:21:39.756Z,16.40
2019-04-06T20:26:43.863Z,16.30
2019-04-06T20:31:47.195Z,16.30
2019-04-06T20:36:49.645Z,16.30
2019-04-06T20:41:53.255Z,16.30
2019-04-06T20:46:56.586Z,16.20
2019-04-06T20:52:02.845Z,15.90
2019-04-06T20:57:06.524Z,15.70
2019-04-06T21:02:09.372Z,15.70
2019-04-06T21:07:12.149Z,15.60
2019-04-06T21:12:15.077Z,15.20
2019-04-06T21:17:18.656Z,15.50
2019-04-06T21:22:21.537Z,15.50
2019-04-06T21:27:24.177Z,15.50
2019-04-06T21:32:27.099Z,15.50
2019-04-06T21:37:29.355Z,15.30
2019-04-06T21:42:31.964Z,15.10
2019-04-06T21:47:35.205Z,15.00
2019-04-06T21:52:37.155Z,15.10
2019-04-06T21:57:40.399Z,14.80
2019-04-06T22:02:42.524Z,14.50
2019-04-06T22:07:49.824Z,14.70
2019-04-06T22:12:48.050Z,14.90
2019-04-06T22:17:50.513Z,15.00
2019-04-06T22:22:53.585Z,14.80
2019-04-06T22:27:55.730Z,14.70
2019-04-06T22:32:58.289Z,14.70
2019-04-06T22:38:01.170Z,14.70
2019-04-06T22:43:03.990Z,14.80
2019-04-06T22:48:06.141Z,14.60
2019-04-06T22:53:08.748Z,14.50
2019-04-06T22:58:11.758Z,14.50
2019-04-06T23:03:21.249Z,14.40
2019-04-06T23:08:23.882Z,14.30
2019-04-06T23:13:26.906Z,14.40
2019-04-06T23:18:29.070Z,14.30
2019-04-06T23:23:31.604Z,14.00
2019-04-06T23:28:34.138Z,14.00
2019-04-06T23:33:36.846Z,14.10
2019-04-06T23:38:39.536Z,14.30
2019-04-06T23:43:41.928Z,14.20
2019-04-06T23:48:44.613Z,14.00
2019-04-06T23:53:47.067Z,13.80
2019-04-06T23:58:49.793Z,14.00
